Stump Creek, Pennsylvania
Current Conditions -  °F | °C
As of 6:17 AM on Thursday 27 Nov 2014 (Local Time) from KDUJ Reporting Station
Haze Haze  
Wind Chill: 29°   Ceiling: 1000
Heat Index: 29°   Visibility: 4mi
Dew Point: 27°   Wind: 3mph
Humidity: 92%   Direction: 30°NNE
Pressure: 29.95"   Gusts: NA
Location:  41.01°N, 78.84°W
Report Text: KDUJ 271117Z AUTO 03003KT 4SM BR BKN010 OVC015 M02/M03 A2995 RMK AO2 T10171028
Loading
Personal Weather Stations






























Interactive Weather Map New forecast layout! Learn more

10-Day Weather Forecast

Advertisements
Track Severe Weather on mobile